createdAt,value
2022-09-15T00:01:32.396Z,22.95
2022-09-15T00:03:58.671Z,19.42
2022-09-15T00:06:24.936Z,24.27
2022-09-15T00:08:51.178Z,24.30
2022-09-15T00:11:22.368Z,24.83
2022-09-15T00:13:49.051Z,22.95
2022-09-15T00:16:16.424Z,26.25
2022-09-15T00:18:43.147Z,22.02
2022-09-15T00:21:10.757Z,23.55
2022-09-15T00:23:37.405Z,21.50
2022-09-15T00:26:06.809Z,21.95
2022-09-15T00:28:33.037Z,23.38
2022-09-15T00:30:59.323Z,22.33
2022-09-15T00:33:25.794Z,22.17
2022-09-15T00:35:53.374Z,24.25
2022-09-15T00:38:19.994Z,24.35
2022-09-15T00:40:48.923Z,19.77
2022-09-15T00:43:16.339Z,22.10
2022-09-15T00:45:42.600Z,23.42
2022-09-15T00:48:11.158Z,20.40
2022-09-15T00:50:37.645Z,21.30
2022-09-15T00:53:04.691Z,21.50
2022-09-15T00:55:37.696Z,19.70
2022-09-15T00:58:08.456Z,23.05
2022-09-15T01:00:34.732Z,25.03
2022-09-15T01:03:01.780Z,22.00
2022-09-15T01:05:48.450Z,22.83
2022-09-15T01:08:17.460Z,24.05
2022-09-15T01:10:44.779Z,24.75
2022-09-15T01:13:12.295Z,23.55
2022-09-15T01:15:38.517Z,24.10
2022-09-15T01:18:23.431Z,23.05
2022-09-15T01:21:08.185Z,25.27
2022-09-15T01:23:40.294Z,22.70
2022-09-15T01:26:06.456Z,23.48
2022-09-15T01:28:51.228Z,22.85
2022-09-15T01:31:24.139Z,26.70
2022-09-15T01:33:57.975Z,23.17
2022-09-15T01:36:27.831Z,24.88
2022-09-15T01:39:00.808Z,25.58
2022-09-15T01:41:45.953Z,20.90
2022-09-15T01:44:14.565Z,26.90
2022-09-15T01:46:47.099Z,22.60
2022-09-15T01:49:17.053Z,22.50
2022-09-15T01:51:44.563Z,23.13
2022-09-15T01:54:11.023Z,24.83
2022-09-15T01:56:37.626Z,18.85
2022-09-15T01:59:04.265Z,23.90
2022-09-15T02:01:34.225Z,23.25
2022-09-15T02:04:03.203Z,19.88
2022-09-15T02:06:36.641Z,22.90
2022-09-15T02:09:23.112Z,26.83
2022-09-15T02:11:54.011Z,28.20
2022-09-15T02:14:23.984Z,25.55
2022-09-15T02:16:52.452Z,24.60
2022-09-15T02:19:34.249Z,24.05
2022-09-15T02:24:29.811Z,22.35
2022-09-15T02:26:56.847Z,23.05
2022-09-15T02:29:24.257Z,27.77
2022-09-15T02:31:52.435Z,23.05
2022-09-15T02:34:21.028Z,25.02
2022-09-15T02:36:48.158Z,23.88
2022-09-15T02:39:15.995Z,23.30
2022-09-15T02:41:42.544Z,20.80
2022-09-15T02:44:09.586Z,23.95
2022-09-15T02:46:36.551Z,23.65
2022-09-15T02:49:03.055Z,24.00
2022-09-15T02:51:29.449Z,19.33
2022-09-15T02:53:55.733Z,21.08
2022-09-15T02:56:22.243Z,20.67
2022-09-15T02:58:48.449Z,23.15
2022-09-15T03:01:15.523Z,20.58
2022-09-15T03:03:43.154Z,24.58
2022-09-15T03:06:19.746Z,23.50
2022-09-15T03:08:50.757Z,19.23
2022-09-15T03:11:19.195Z,16.77
2022-09-15T03:13:45.764Z,21.10
2022-09-15T03:16:13.001Z,21.75
2022-09-15T03:18:39.692Z,19.90
2022-09-15T03:21:06.801Z,23.33
2022-09-15T03:23:33.187Z,25.35
2022-09-15T03:25:59.466Z,21.75
2022-09-15T03:28:26.593Z,22.17
2022-09-15T03:30:56.195Z,24.30
2022-09-15T03:33:23.402Z,21.38
2022-09-15T03:35:50.553Z,18.70
2022-09-15T03:38:17.584Z,22.92
2022-09-15T03:40:44.058Z,21.42
2022-09-15T03:43:14.257Z,20.58
2022-09-15T03:45:42.959Z,20.88
2022-09-15T03:48:09.209Z,22.08
2022-09-15T03:50:35.527Z,20.27
2022-09-15T03:53:02.018Z,21.98
2022-09-15T03:55:28.663Z,22.10
2022-09-15T03:57:55.631Z,21.77
2022-09-15T04:00:22.644Z,20.60
2022-09-15T04:02:48.843Z,22.83
2022-09-15T04:05:15.140Z,16.42
2022-09-15T04:07:41.496Z,21.63
2022-09-15T04:10:08.518Z,23.98
2022-09-15T04:12:35.330Z,26.90
2022-09-15T04:15:01.844Z,20.90
2022-09-15T04:17:28.303Z,20.80
2022-09-15T04:19:54.523Z,23.60
2022-09-15T04:22:21.437Z,22.02
2022-09-15T04:24:48.127Z,23.85
2022-09-15T04:27:14.891Z,24.67
2022-09-15T04:29:42.085Z,20.95
2022-09-15T04:32:08.764Z,24.52
2022-09-15T04:34:39.254Z,26.35
2022-09-15T04:37:07.460Z,22.60
2022-09-15T04:39:33.678Z,23.17
2022-09-15T04:41:59.925Z,20.20
2022-09-15T04:44:26.272Z,26.77
2022-09-15T04:46:52.561Z,22.83
2022-09-15T04:49:18.917Z,21.50
2022-09-15T04:51:45.109Z,25.00
2022-09-15T04:54:11.289Z,23.70
2022-09-15T04:56:38.624Z,24.05
2022-09-15T04:59:04.845Z,27.52
2022-09-15T05:01:33.590Z,24.20
2022-09-15T05:04:00.743Z,26.33
2022-09-15T05:06:27.534Z,28.98
2022-09-15T05:08:55.044Z,28.45
2022-09-15T05:11:21.512Z,25.75
2022-09-15T05:13:48.194Z,24.10
2022-09-15T05:16:15.694Z,26.45
2022-09-15T05:18:42.766Z,24.90
2022-09-15T05:21:10.506Z,26.25
2022-09-15T05:23:36.898Z,27.17
2022-09-15T05:26:04.753Z,23.50
2022-09-15T05:28:32.092Z,21.85
2022-09-15T05:30:58.370Z,23.13
2022-09-15T05:33:24.573Z,21.90
2022-09-15T05:35:50.871Z,26.17
2022-09-15T05:38:17.589Z,21.23
2022-09-15T05:40:43.778Z,20.42
2022-09-15T05:43:11.176Z,26.42
2022-09-15T05:45:37.456Z,20.65
2022-09-15T05:48:03.940Z,22.48
2022-09-15T05:50:30.713Z,22.00
2022-09-15T05:52:56.896Z,20.10
2022-09-15T05:55:23.118Z,21.80
2022-09-15T05:57:49.315Z,20.80
2022-09-15T06:00:15.660Z,23.63
2022-09-15T06:02:41.899Z,22.92
2022-09-15T06:05:08.352Z,22.55
2022-09-15T06:07:34.567Z,19.42
2022-09-15T06:10:00.845Z,22.65
2022-09-15T06:12:27.153Z,23.27
2022-09-15T06:14:53.698Z,21.38
2022-09-15T06:17:22.060Z,20.33
2022-09-15T06:19:48.383Z,21.77
2022-09-15T06:22:14.774Z,25.90
2022-09-15T06:24:40.967Z,23.75
2022-09-15T06:27:07.801Z,20.42
2022-09-15T06:29:33.995Z,27.52
2022-09-15T06:32:02.684Z,23.83
2022-09-15T06:34:29.486Z,21.90
2022-09-15T06:36:56.222Z,23.00
2022-09-15T06:39:22.420Z,22.13
2022-09-15T06:42:05.929Z,17.95
2022-09-15T06:44:32.232Z,19.13
2022-09-15T06:46:58.571Z,21.13
2022-09-15T06:49:24.999Z,20.15
2022-09-15T06:51:51.180Z,21.17
2022-09-15T06:54:17.549Z,20.50
2022-09-15T06:56:44.031Z,19.08
2022-09-15T06:59:13.743Z,19.60
2022-09-15T07:01:40.826Z,21.25
2022-09-15T07:04:09.644Z,18.95
2022-09-15T07:06:37.150Z,22.27
2022-09-15T07:09:04.506Z,17.67
2022-09-15T07:11:31.529Z,21.98
2022-09-15T07:13:58.110Z,20.17
2022-09-15T07:16:25.579Z,19.42
2022-09-15T07:18:54.168Z,21.95
2022-09-15T07:21:21.471Z,18.88
2022-09-15T07:23:48.526Z,19.55
2022-09-15T07:26:22.338Z,18.40
2022-09-15T07:28:49.985Z,15.43
2022-09-15T07:31:17.782Z,17.90
2022-09-15T07:33:44.334Z,21.00
2022-09-15T07:36:11.316Z,17.85
2022-09-15T07:38:42.070Z,16.73
2022-09-15T07:41:09.794Z,18.53
2022-09-15T07:43:36.159Z,18.55
2022-09-15T07:46:03.007Z,19.35
2022-09-15T07:48:29.864Z,17.65
2022-09-15T07:50:56.522Z,17.58
2022-09-15T07:53:22.910Z,21.08
2022-09-15T07:55:53.146Z,18.02
2022-09-15T07:58:19.677Z,14.60
2022-09-15T08:00:47.383Z,17.58
2022-09-15T08:03:14.057Z,18.67
2022-09-15T08:05:44.800Z,15.30
2022-09-15T08:08:11.736Z,13.43
2022-09-15T08:10:39.070Z,14.15
2022-09-15T08:13:05.507Z,13.82
2022-09-15T08:15:32.014Z,14.27
2022-09-15T08:17:58.231Z,13.07
2022-09-15T08:20:24.441Z,15.07
2022-09-15T08:22:50.670Z,16.70
2022-09-15T08:25:16.972Z,16.85
2022-09-15T08:27:43.174Z,14.02
2022-09-15T08:30:10.011Z,18.08
2022-09-15T08:32:36.221Z,17.02
2022-09-15T08:35:02.446Z,14.40
2022-09-15T08:37:28.652Z,17.65
2022-09-15T08:39:54.948Z,11.57
2022-09-15T08:42:21.927Z,13.18
2022-09-15T08:44:58.973Z,13.32
2022-09-15T08:47:31.139Z,14.70
2022-09-15T08:50:16.257Z,12.18
2022-09-15T08:53:02.867Z,12.68
2022-09-15T08:55:41.576Z,11.57
2022-09-15T08:58:12.737Z,11.38
2022-09-15T09:00:39.668Z,10.23
2022-09-15T09:03:17.874Z,11.60
2022-09-15T09:05:44.148Z,10.73
2022-09-15T09:08:22.383Z,10.18
2022-09-15T09:10:51.302Z,9.20
2022-09-15T09:13:20.554Z,9.90
2022-09-15T09:16:13.826Z,9.45
2022-09-15T09:18:58.753Z,10.25
2022-09-15T09:21:29.367Z,14.23
2022-09-15T09:24:05.318Z,14.60
2022-09-15T09:26:33.891Z,9.88
2022-09-15T09:29:01.456Z,7.15
2022-09-15T09:31:28.632Z,7.63
2022-09-15T09:34:13.487Z,7.40
2022-09-15T09:36:39.788Z,10.98
2022-09-15T09:39:06.155Z,9.50
2022-09-15T09:41:36.282Z,8.05
2022-09-15T09:44:03.739Z,9.60
2022-09-15T09:46:30.012Z,11.07
2022-09-15T09:49:00.787Z,6.78
2022-09-15T09:51:32.822Z,6.40
2022-09-15T09:54:06.460Z,6.50
2022-09-15T09:56:33.339Z,7.22
2022-09-15T09:58:59.530Z,8.05
2022-09-15T10:01:25.822Z,7.00
2022-09-15T10:04:18.154Z,7.65
2022-09-15T10:06:44.828Z,5.15
2022-09-15T10:09:15.793Z,5.35
2022-09-15T10:11:50.248Z,8.02
2022-09-15T10:14:19.859Z,3.95
2022-09-15T10:16:56.026Z,5.57
2022-09-15T10:19:22.279Z,6.10
2022-09-15T10:21:48.465Z,8.77
2022-09-15T10:24:24.839Z,11.13
2022-09-15T10:26:51.111Z,9.98
2022-09-15T10:29:18.188Z,7.60
2022-09-15T10:31:45.444Z,5.20
2022-09-15T10:34:25.515Z,5.43
2022-09-15T10:36:53.973Z,6.57
2022-09-15T10:39:31.580Z,5.53
2022-09-15T10:42:09.403Z,5.25
2022-09-15T10:44:55.850Z,6.63
2022-09-15T10:47:31.166Z,5.88
2022-09-15T10:49:57.322Z,6.32
2022-09-15T10:52:48.061Z,13.32
2022-09-15T10:55:42.201Z,7.47
2022-09-15T10:58:27.984Z,6.35
2022-09-15T11:00:54.177Z,6.63
2022-09-15T11:03:39.676Z,5.63
2022-09-15T11:06:19.004Z,4.80
2022-09-15T11:09:03.630Z,4.57
2022-09-15T11:11:32.604Z,5.13
2022-09-15T11:14:11.183Z,5.28
2022-09-15T11:16:43.902Z,4.63
2022-09-15T11:19:28.229Z,5.68
2022-09-15T11:21:59.835Z,4.78
2022-09-15T11:26:57.754Z,7.93
2022-09-15T11:29:26.887Z,5.22
2022-09-15T11:31:56.451Z,7.05
2022-09-15T11:34:33.618Z,5.75
2022-09-15T11:37:02.912Z,6.40
2022-09-15T11:39:37.235Z,5.05
2022-09-15T11:42:25.022Z,5.45
2022-09-15T11:44:51.623Z,4.90
2022-09-15T11:47:27.659Z,7.35
2022-09-15T11:50:05.756Z,6.32
2022-09-15T11:52:50.642Z,5.10
2022-09-15T11:55:21.610Z,5.85
2022-09-15T11:57:51.059Z,5.65
2022-09-15T12:00:17.353Z,4.38
2022-09-15T12:02:51.307Z,5.65
2022-09-15T12:05:17.708Z,6.00
2022-09-15T12:07:48.260Z,5.60
2022-09-15T12:10:17.693Z,4.90
2022-09-15T12:12:44.897Z,4.13
2022-09-15T12:15:14.620Z,6.38
2022-09-15T12:17:45.323Z,5.10
2022-09-15T12:20:17.370Z,5.05
2022-09-15T12:22:56.718Z,5.65
2022-09-15T12:25:28.718Z,3.78
2022-09-15T12:28:13.750Z,3.03
2022-09-15T12:30:41.373Z,3.45
2022-09-15T12:33:43.296Z,2.95
2022-09-15T12:36:28.484Z,5.82
2022-09-15T12:38:54.821Z,3.70
2022-09-15T12:41:21.144Z,3.42
2022-09-15T12:43:54.450Z,4.25
2022-09-15T12:46:20.790Z,4.00
2022-09-15T12:48:47.723Z,3.45
2022-09-15T12:51:22.036Z,2.58
2022-09-15T12:54:04.497Z,3.47
2022-09-15T12:56:31.708Z,2.92
2022-09-15T12:59:07.507Z,2.70
2022-09-15T13:01:50.229Z,3.90
2022-09-15T13:04:26.320Z,4.38
2022-09-15T13:07:11.296Z,7.57
2022-09-15T13:09:43.842Z,3.88
2022-09-15T13:12:12.327Z,2.92
2022-09-15T13:14:41.960Z,3.75
2022-09-15T13:17:14.235Z,4.43
2022-09-15T13:19:44.145Z,3.92
2022-09-15T13:22:13.510Z,3.47
2022-09-15T13:24:52.343Z,4.45
2022-09-15T13:27:21.006Z,3.20
2022-09-15T13:29:49.360Z,7.93
2022-09-15T13:32:20.936Z,3.15
2022-09-15T13:38:13.614Z,3.67
2022-09-15T13:40:37.234Z,4.30
2022-09-15T13:43:03.400Z,4.97
2022-09-15T13:45:50.471Z,4.25
2022-09-15T13:48:24.876Z,3.75
2022-09-15T13:50:59.633Z,4.35
2022-09-15T13:53:25.792Z,4.05
2022-09-15T13:55:54.510Z,5.18
2022-09-15T14:01:11.381Z,3.90
2022-09-15T14:03:48.478Z,6.07
2022-09-15T14:06:17.374Z,5.18
2022-09-15T14:08:45.848Z,5.38
2022-09-15T14:11:15.620Z,4.63
2022-09-15T14:13:44.554Z,2.95
2022-09-15T14:16:20.031Z,8.02
2022-09-15T14:18:46.709Z,4.57
2022-09-15T14:21:17.474Z,3.90
2022-09-15T14:23:45.634Z,3.90
2022-09-15T14:26:13.249Z,4.30
2022-09-15T14:28:39.491Z,4.88
2022-09-15T14:31:05.812Z,4.35
2022-09-15T14:33:37.636Z,4.15
2022-09-15T14:36:12.108Z,2.70
2022-09-15T14:38:38.301Z,6.03
2022-09-15T14:41:05.307Z,4.53
2022-09-15T14:43:32.793Z,2.97
2022-09-15T14:46:15.350Z,2.08
2022-09-15T14:48:41.522Z,7.85
2022-09-15T14:51:17.739Z,4.10
2022-09-15T14:53:44.618Z,3.80
2022-09-15T14:56:18.516Z,3.72
2022-09-15T14:58:52.474Z,4.15
2022-09-15T15:01:20.998Z,3.50
2022-09-15T15:03:52.077Z,5.30
2022-09-15T15:06:28.956Z,5.05
2022-09-15T15:09:07.885Z,4.03
2022-09-15T15:11:34.878Z,3.30
2022-09-15T15:14:02.002Z,3.58
2022-09-15T15:16:29.524Z,4.95
2022-09-15T15:18:57.033Z,3.15
2022-09-15T15:21:31.125Z,4.00
2022-09-15T15:23:57.750Z,4.22
2022-09-15T15:26:28.576Z,3.33
2022-09-15T15:28:54.798Z,2.90
2022-09-15T15:31:22.938Z,2.83
2022-09-15T15:33:52.041Z,5.70
2022-09-15T15:36:24.943Z,2.90
2022-09-15T15:38:52.874Z,2.92
2022-09-15T15:41:24.132Z,2.35
2022-09-15T15:44:10.588Z,2.75
2022-09-15T15:46:53.329Z,2.90
2022-09-15T15:49:21.196Z,2.53
2022-09-15T15:51:47.780Z,1.83
2022-09-15T15:54:14.372Z,2.63
2022-09-15T15:56:40.699Z,5.32
2022-09-15T15:59:06.929Z,2.63
2022-09-15T16:01:33.338Z,2.85
2022-09-15T16:03:59.601Z,2.20
2022-09-15T16:06:26.048Z,6.35
2022-09-15T16:08:52.631Z,2.58
2022-09-15T16:11:20.761Z,4.78
2022-09-15T16:13:48.123Z,2.95
2022-09-15T16:16:21.571Z,3.38
2022-09-15T16:18:47.932Z,3.00
2022-09-15T16:21:18.599Z,4.85
2022-09-15T16:23:45.338Z,2.93
2022-09-15T16:26:14.430Z,3.10
2022-09-15T16:28:40.786Z,4.65
2022-09-15T16:31:09.338Z,2.85
2022-09-15T16:33:38.102Z,2.72
2022-09-15T16:36:06.826Z,6.70
2022-09-15T16:38:33.939Z,3.80
2022-09-15T16:41:00.299Z,3.38
2022-09-15T16:43:26.647Z,4.03
2022-09-15T16:45:53.215Z,4.40
2022-09-15T16:48:19.754Z,5.15
2022-09-15T16:51:01.744Z,4.18
2022-09-15T16:53:32.888Z,5.05
2022-09-15T16:55:59.144Z,3.97
2022-09-15T16:58:25.439Z,4.82
2022-09-15T17:00:52.519Z,4.05
2022-09-15T17:03:20.162Z,2.20
2022-09-15T17:05:48.746Z,2.90
2022-09-15T17:08:15.770Z,3.10
2022-09-15T17:10:42.350Z,4.60
2022-09-15T17:13:09.173Z,5.13
2022-09-15T17:15:35.452Z,7.15
2022-09-15T17:18:02.280Z,4.60
2022-09-15T17:20:28.663Z,4.40
2022-09-15T17:22:54.997Z,4.65
2022-09-15T17:25:21.484Z,3.30
2022-09-15T17:27:48.223Z,4.68
2022-09-15T17:30:14.752Z,5.80
2022-09-15T17:32:41.564Z,2.42
2022-09-15T17:35:13.234Z,4.13
2022-09-15T17:37:39.647Z,5.25
2022-09-15T17:40:06.211Z,3.78
2022-09-15T17:42:32.496Z,2.70
2022-09-15T17:44:58.979Z,3.65
2022-09-15T17:47:25.191Z,3.83
2022-09-15T17:49:51.395Z,5.20
2022-09-15T17:52:17.616Z,3.53
2022-09-15T17:54:43.826Z,3.00
2022-09-15T17:57:10.008Z,5.18
2022-09-15T17:59:36.318Z,5.22
2022-09-15T18:02:02.715Z,5.20
2022-09-15T18:04:29.440Z,3.30
2022-09-15T18:06:55.624Z,4.95
2022-09-15T18:09:22.040Z,4.03
2022-09-15T18:11:48.316Z,5.20
2022-09-15T18:14:14.631Z,3.47
2022-09-15T18:16:42.436Z,7.85
2022-09-15T18:19:08.635Z,6.95
2022-09-15T18:21:34.850Z,5.57
2022-09-15T18:24:01.180Z,4.03
2022-09-15T18:26:27.383Z,4.70
2022-09-15T18:28:54.430Z,6.25
2022-09-15T18:31:20.968Z,4.65
2022-09-15T18:33:47.190Z,6.15
2022-09-15T18:36:13.480Z,5.15
2022-09-15T18:38:39.689Z,4.82
2022-09-15T18:41:09.005Z,4.45
2022-09-15T18:43:35.324Z,4.55
2022-09-15T18:46:01.911Z,3.65
2022-09-15T18:48:28.598Z,4.43
2022-09-15T18:50:54.991Z,3.92
2022-09-15T18:53:21.401Z,4.30
2022-09-15T18:55:47.666Z,3.95
2022-09-15T18:58:13.944Z,5.15
2022-09-15T19:00:40.584Z,6.82
2022-09-15T19:03:09.202Z,3.28
2022-09-15T19:05:35.614Z,3.63
2022-09-15T19:08:02.120Z,3.40
2022-09-15T19:10:29.150Z,5.60
2022-09-15T19:12:55.351Z,7.68
2022-09-15T19:15:24.536Z,3.20
2022-09-15T19:17:51.109Z,3.35
2022-09-15T19:20:17.401Z,3.65
2022-09-15T19:22:43.785Z,3.58
2022-09-15T19:25:10.897Z,4.18
2022-09-15T19:27:38.004Z,4.68
2022-09-15T19:30:04.678Z,5.97
2022-09-15T19:32:31.933Z,4.40
2022-09-15T19:34:58.176Z,6.03
2022-09-15T19:37:24.424Z,3.30
2022-09-15T19:39:50.719Z,2.63
2022-09-15T19:42:17.154Z,6.22
2022-09-15T19:44:43.850Z,6.03
2022-09-15T19:47:10.448Z,7.28
2022-09-15T19:49:36.704Z,5.55
2022-09-15T19:52:03.320Z,3.67
2022-09-15T19:54:29.986Z,5.90
2022-09-15T19:56:56.270Z,3.70
2022-09-15T19:59:26.281Z,5.53
2022-09-15T20:01:55.119Z,2.78
2022-09-15T20:04:21.471Z,5.47
2022-09-15T20:06:47.696Z,5.38
2022-09-15T20:09:14.896Z,3.65
2022-09-15T20:11:41.132Z,4.15
2022-09-15T20:14:07.397Z,7.28
2022-09-15T20:16:33.682Z,5.25
2022-09-15T20:19:00.111Z,3.55
2022-09-15T20:21:48.743Z,2.85
2022-09-15T20:24:14.720Z,2.25
2022-09-15T20:26:40.994Z,4.03
2022-09-15T20:29:07.195Z,3.83
2022-09-15T20:31:34.031Z,5.95
2022-09-15T20:34:00.969Z,6.47
2022-09-15T20:36:30.342Z,6.57
2022-09-15T20:38:56.973Z,4.97
2022-09-15T20:41:24.120Z,6.32
2022-09-15T20:43:51.182Z,8.13
2022-09-15T20:46:21.690Z,5.85
2022-09-15T20:48:48.216Z,7.63
2022-09-15T20:51:18.724Z,3.25
2022-09-15T20:53:46.137Z,5.38
2022-09-15T20:56:12.836Z,6.25
2022-09-15T20:58:39.388Z,3.80
2022-09-15T21:01:10.108Z,4.60
2022-09-15T21:03:37.232Z,3.60
2022-09-15T21:06:07.719Z,3.22
2022-09-15T21:08:34.782Z,2.85
2022-09-15T21:11:01.651Z,3.20
2022-09-15T21:13:29.106Z,5.63
2022-09-15T21:15:57.978Z,4.60
2022-09-15T21:18:25.542Z,2.35
2022-09-15T21:20:59.023Z,4.05
2022-09-15T21:23:25.647Z,2.47
2022-09-15T21:26:02.304Z,11.88
2022-09-15T21:28:28.715Z,4.85
2022-09-15T21:31:00.674Z,5.95
2022-09-15T21:33:27.299Z,3.13
2022-09-15T21:36:01.104Z,4.50
2022-09-15T21:38:27.299Z,3.35
2022-09-15T21:40:53.505Z,4.88
2022-09-15T21:43:19.740Z,4.75
2022-09-15T21:45:46.044Z,7.20
2022-09-15T21:48:14.076Z,6.10
2022-09-15T21:50:50.737Z,3.10
2022-09-15T21:53:17.596Z,5.82
2022-09-15T21:55:43.825Z,5.13
2022-09-15T21:58:10.084Z,2.17
2022-09-15T22:00:36.688Z,3.65
2022-09-15T22:03:02.949Z,2.10
2022-09-15T22:05:29.684Z,3.08
2022-09-15T22:07:55.873Z,3.70
2022-09-15T22:10:22.069Z,5.60
2022-09-15T22:12:48.279Z,3.47
2022-09-15T22:15:15.579Z,4.32
2022-09-15T22:17:42.192Z,3.80
2022-09-15T22:20:09.242Z,4.50
2022-09-15T22:22:35.682Z,2.88
2022-09-15T22:25:01.966Z,4.35
2022-09-15T22:27:28.474Z,2.95
2022-09-15T22:29:54.700Z,4.22
2022-09-15T22:32:20.929Z,11.35
2022-09-15T22:34:47.682Z,5.43
2022-09-15T22:37:13.955Z,3.75
2022-09-15T22:39:57.762Z,2.75
2022-09-15T22:42:25.882Z,5.53
2022-09-15T22:44:52.126Z,3.72
2022-09-15T22:47:18.336Z,5.07
2022-09-15T22:49:44.706Z,3.05
2022-09-15T22:52:10.935Z,3.22
2022-09-15T22:54:37.180Z,4.78
2022-09-15T22:57:03.460Z,7.28
2022-09-15T22:59:29.748Z,6.65
2022-09-15T23:01:56.026Z,3.67
2022-09-15T23:04:22.287Z,7.28
2022-09-15T23:06:49.019Z,4.55
2022-09-15T23:09:15.593Z,4.03
2022-09-15T23:11:41.873Z,7.80
2022-09-15T23:14:11.952Z,5.30
2022-09-15T23:16:38.217Z,7.45
2022-09-15T23:19:05.122Z,3.72
2022-09-15T23:21:31.893Z,2.25
2022-09-15T23:23:59.105Z,8.90
2022-09-15T23:26:25.852Z,3.92
2022-09-15T23:28:52.246Z,6.00
2022-09-15T23:31:18.831Z,4.53
2022-09-15T23:33:45.388Z,5.90
2022-09-15T23:36:12.785Z,2.72
2022-09-15T23:38:39.546Z,3.17
2022-09-15T23:41:06.241Z,5.72
2022-09-15T23:43:33.168Z,5.40
2022-09-15T23:46:00.178Z,2.28
2022-09-15T23:48:26.823Z,4.57
2022-09-15T23:50:53.116Z,4.72
2022-09-15T23:53:19.417Z,3.70
2022-09-15T23:55:45.902Z,6.07
2022-09-15T23:58:12.162Z,4.07
